sensor_id;sensor_type;location;lat;lon;timestamp;temperature;humidity
8780;DHT22;62328;51.19929245;4.42130175;2023-10-08T00:02:24;17.10;99.90
8780;DHT22;62328;51.19929245;4.42130175;2023-10-08T00:04:52;17.10;99.90
8780;DHT22;62328;51.19929245;4.42130175;2023-10-08T00:07:20;17.00;99.90
8780;DHT22;62328;51.19929245;4.42130175;2023-10-08T00:09:48;17.00;99.90
8780;DHT22;62328;51.19929245;4.42130175;2023-10-08T00:12:16;16.90;99.90
8780;DHT22;62328;51.19929245;4.42130175;2023-10-08T00:14:46;16.90;99.90
8780;DHT22;62328;51.19929245;4.42130175;2023-10-08T00:17:15;16.90;99.90
8780;DHT22;62328;51.19929245;4.42130175;2023-10-08T00:19:41;16.90;99.90
8780;DHT22;62328;51.19929245;4.42130175;2023-10-08T00:22:13;16.90;99.90
8780;DHT22;62328;51.19929245;4.42130175;2023-10-08T00:24:44;16.80;99.90
8780;DHT22;62328;51.19929245;4.42130175;2023-10-08T00:27:14;16.80;99.90
8780;DHT22;62328;51.19929245;4.42130175;2023-10-08T00:29:43;16.80;99.90
8780;DHT22;62328;51.19929245;4.42130175;2023-10-08T00:32:12;16.80;99.90
8780;DHT22;62328;51.19929245;4.42130175;2023-10-08T00:34:39;16.70;99.90
8780;DHT22;62328;51.19929245;4.42130175;2023-10-08T00:37:09;16.80;99.90
8780;DHT22;62328;51.19929245;4.42130175;2023-10-08T00:39:37;16.70;99.90
8780;DHT22;62328;51.19929245;4.42130175;2023-10-08T00:42:06;16.70;99.90
8780;DHT22;62328;51.19929245;4.42130175;2023-10-08T00:44:33;16.70;99.90
8780;DHT22;62328;51.19929245;4.42130175;2023-10-08T00:47:07;16.70;99.90
8780;DHT22;62328;51.19929245;4.42130175;2023-10-08T00:49:38;16.60;99.90
8780;DHT22;62328;51.19929245;4.42130175;2023-10-08T00:52:14;16.60;99.90
8780;DHT22;62328;51.19929245;4.42130175;2023-10-08T00:54:56;16.60;99.90
8780;DHT22;62328;51.19929245;4.42130175;2023-10-08T00:57:35;16.60;99.90
8780;DHT22;62328;51.19929245;4.42130175;2023-10-08T01:00:10;16.50;99.90
8780;DHT22;62328;51.19929245;4.42130175;2023-10-08T01:02:47;16.50;99.90
8780;DHT22;62328;51.19929245;4.42130175;2023-10-08T01:05:22;16.50;99.90
8780;DHT22;62328;51.19929245;4.42130175;2023-10-08T01:08:03;16.50;99.90
8780;DHT22;62328;51.19929245;4.42130175;2023-10-08T01:10:32;16.50;99.90
8780;DHT22;62328;51.19929245;4.42130175;2023-10-08T01:12:59;16.50;99.90
8780;DHT22;62328;51.19929245;4.42130175;2023-10-08T01:15:33;16.40;99.90
8780;DHT22;62328;51.19929245;4.42130175;2023-10-08T01:18:01;16.40;99.90
8780;DHT22;62328;51.19929245;4.42130175;2023-10-08T01:20:32;16.40;99.90
8780;DHT22;62328;51.19929245;4.42130175;2023-10-08T01:23:07;16.40;99.90
8780;DHT22;62328;51.19929245;4.42130175;2023-10-08T01:25:39;16.40;99.90
8780;DHT22;62328;51.19929245;4.42130175;2023-10-08T01:28:06;16.40;99.90
8780;DHT22;62328;51.19929245;4.42130175;2023-10-08T01:30:41;16.40;99.90
8780;DHT22;62328;51.19929245;4.42130175;2023-10-08T01:33:09;16.40;99.90
8780;DHT22;62328;51.19929245;4.42130175;2023-10-08T01:35:40;16.40;99.90
8780;DHT22;62328;51.19929245;4.42130175;2023-10-08T01:38:08;16.40;99.90
8780;DHT22;62328;51.19929245;4.42130175;2023-10-08T01:40:40;16.40;99.90
8780;DHT22;62328;51.19929245;4.42130175;2023-10-08T01:43:07;16.30;99.90
8780;DHT22;62328;51.19929245;4.42130175;2023-10-08T01:45:36;16.30;99.90
8780;DHT22;62328;51.19929245;4.42130175;2023-10-08T01:48:08;16.40;99.90
8780;DHT22;62328;51.19929245;4.42130175;2023-10-08T01:50:36;16.30;99.90
8780;DHT22;62328;51.19929245;4.42130175;2023-10-08T01:53:04;16.30;99.90
8780;DHT22;62328;51.19929245;4.42130175;2023-10-08T01:55:36;16.20;99.90
8780;DHT22;62328;51.19929245;4.42130175;2023-10-08T01:58:16;16.20;99.90
8780;DHT22;62328;51.19929245;4.42130175;2023-10-08T02:00:44;16.30;99.90
8780;DHT22;62328;51.19929245;4.42130175;2023-10-08T02:03:13;16.20;99.90
8780;DHT22;62328;51.19929245;4.42130175;2023-10-08T02:05:41;16.30;99.90
8780;DHT22;62328;51.19929245;4.42130175;2023-10-08T02:08:10;16.20;99.90
8780;DHT22;62328;51.19929245;4.42130175;2023-10-08T02:10:40;16.30;99.90
8780;DHT22;62328;51.19929245;4.42130175;2023-10-08T02:13:09;16.20;99.90
8780;DHT22;62328;51.19929245;4.42130175;2023-10-08T02:15:36;16.10;99.90
8780;DHT22;62328;51.19929245;4.42130175;2023-10-08T02:18:07;16.20;99.90
8780;DHT22;62328;51.19929245;4.42130175;2023-10-08T02:20:34;16.10;99.90
8780;DHT22;62328;51.19929245;4.42130175;2023-10-08T02:23:01;16.00;99.90
8780;DHT22;62328;51.19929245;4.42130175;2023-10-08T02:25:31;16.10;99.90
8780;DHT22;62328;51.19929245;4.42130175;2023-10-08T02:28:03;16.10;99.90
8780;DHT22;62328;51.19929245;4.42130175;2023-10-08T02:30:30;16.00;99.90
8780;DHT22;62328;51.19929245;4.42130175;2023-10-08T02:32:57;16.00;99.90
8780;DHT22;62328;51.19929245;4.42130175;2023-10-08T02:35:25;16.10;99.90
8780;DHT22;62328;51.19929245;4.42130175;2023-10-08T02:37:52;16.10;99.90
8780;DHT22;62328;51.19929245;4.42130175;2023-10-08T02:40:20;16.00;99.90
8780;DHT22;62328;51.19929245;4.42130175;2023-10-08T02:42:54;16.00;99.90
8780;DHT22;62328;51.19929245;4.42130175;2023-10-08T02:45:26;16.00;99.90
8780;DHT22;62328;51.19929245;4.42130175;2023-10-08T02:47:53;16.00;99.90
8780;DHT22;62328;51.19929245;4.42130175;2023-10-08T02:50:21;16.00;99.90
8780;DHT22;62328;51.19929245;4.42130175;2023-10-08T02:52:48;16.00;99.90
8780;DHT22;62328;51.19929245;4.42130175;2023-10-08T02:55:16;16.00;99.90
8780;DHT22;62328;51.19929245;4.42130175;2023-10-08T02:57:54;16.00;99.90
8780;DHT22;62328;51.19929245;4.42130175;2023-10-08T03:00:21;16.00;99.90
8780;DHT22;62328;51.19929245;4.42130175;2023-10-08T03:02:56;16.00;99.90
8780;DHT22;62328;51.19929245;4.42130175;2023-10-08T03:05:24;15.90;99.90
8780;DHT22;62328;51.19929245;4.42130175;2023-10-08T03:07:55;16.00;99.90
8780;DHT22;62328;51.19929245;4.42130175;2023-10-08T03:10:23;16.00;99.90
8780;DHT22;62328;51.19929245;4.42130175;2023-10-08T03:12:58;16.00;99.90
8780;DHT22;62328;51.19929245;4.42130175;2023-10-08T03:15:30;16.00;99.90
8780;DHT22;62328;51.19929245;4.42130175;2023-10-08T03:18:06;16.00;99.90
8780;DHT22;62328;51.19929245;4.42130175;2023-10-08T03:20:36;15.90;99.90
8780;DHT22;62328;51.19929245;4.42130175;2023-10-08T03:23:09;16.00;99.90
8780;DHT22;62328;51.19929245;4.42130175;2023-10-08T03:25:52;16.00;99.90
8780;DHT22;62328;51.19929245;4.42130175;2023-10-08T03:28:24;15.90;99.90
8780;DHT22;62328;51.19929245;4.42130175;2023-10-08T03:30:53;16.00;99.90
8780;DHT22;62328;51.19929245;4.42130175;2023-10-08T03:33:30;15.90;99.90
8780;DHT22;62328;51.19929245;4.42130175;2023-10-08T03:36:01;16.00;99.90
8780;DHT22;62328;51.19929245;4.42130175;2023-10-08T03:38:36;15.90;99.90
8780;DHT22;62328;51.19929245;4.42130175;2023-10-08T03:41:16;15.90;99.90
8780;DHT22;62328;51.19929245;4.42130175;2023-10-08T03:43:46;15.90;99.90
8780;DHT22;62328;51.19929245;4.42130175;2023-10-08T03:46:22;15.80;99.90
8780;DHT22;62328;51.19929245;4.42130175;2023-10-08T03:48:53;15.80;99.90
8780;DHT22;62328;51.19929245;4.42130175;2023-10-08T03:51:23;15.80;99.90
8780;DHT22;62328;51.19929245;4.42130175;2023-10-08T03:53:53;15.70;99.90
8780;DHT22;62328;51.19929245;4.42130175;2023-10-08T03:56:42;15.70;99.90
8780;DHT22;62328;51.19929245;4.42130175;2023-10-08T03:59:11;15.70;99.90
8780;DHT22;62328;51.19929245;4.42130175;2023-10-08T04:01:40;15.70;99.90
8780;DHT22;62328;51.19929245;4.42130175;2023-10-08T04:04:10;15.70;99.90
8780;DHT22;62328;51.19929245;4.42130175;2023-10-08T04:06:40;15.70;99.90
8780;DHT22;62328;51.19929245;4.42130175;2023-10-08T04:09:15;15.70;99.90
8780;DHT22;62328;51.19929245;4.42130175;2023-10-08T04:11:51;15.70;99.90
8780;DHT22;62328;51.19929245;4.42130175;2023-10-08T04:14:18;15.70;99.90
8780;DHT22;62328;51.19929245;4.42130175;2023-10-08T04:16:46;15.70;99.90
8780;DHT22;62328;51.19929245;4.42130175;2023-10-08T04:19:19;15.60;99.90
8780;DHT22;62328;51.19929245;4.42130175;2023-10-08T04:21:46;15.70;99.90
8780;DHT22;62328;51.19929245;4.42130175;2023-10-08T04:24:22;15.70;99.90
8780;DHT22;62328;51.19929245;4.42130175;2023-10-08T04:26:55;15.70;99.90
8780;DHT22;62328;51.19929245;4.42130175;2023-10-08T04:29:23;15.60;99.90
8780;DHT22;62328;51.19929245;4.42130175;2023-10-08T04:31:51;15.70;99.90
8780;DHT22;62328;51.19929245;4.42130175;2023-10-08T04:34:29;15.60;99.90
8780;DHT22;62328;51.19929245;4.42130175;2023-10-08T04:36:58;15.60;99.90
8780;DHT22;62328;51.19929245;4.42130175;2023-10-08T04:39:30;15.60;99.90
8780;DHT22;62328;51.19929245;4.42130175;2023-10-08T04:41:59;15.50;99.90
8780;DHT22;62328;51.19929245;4.42130175;2023-10-08T04:44:33;15.50;99.90
8780;DHT22;62328;51.19929245;4.42130175;2023-10-08T04:47:01;15.50;99.90
8780;DHT22;62328;51.19929245;4.42130175;2023-10-08T04:49:33;15.50;99.90
8780;DHT22;62328;51.19929245;4.42130175;2023-10-08T04:52:05;15.50;99.90
8780;DHT22;62328;51.19929245;4.42130175;2023-10-08T04:54:40;15.50;99.90
8780;DHT22;62328;51.19929245;4.42130175;2023-10-08T04:57:12;15.50;99.90
8780;DHT22;62328;51.19929245;4.42130175;2023-10-08T04:59:41;15.50;99.90
8780;DHT22;62328;51.19929245;4.42130175;2023-10-08T05:02:09;15.50;99.90
8780;DHT22;62328;51.19929245;4.42130175;2023-10-08T05:04:47;15.50;99.90
8780;DHT22;62328;51.19929245;4.42130175;2023-10-08T05:07:43;15.40;99.90
8780;DHT22;62328;51.19929245;4.42130175;2023-10-08T05:10:43;15.40;99.90
8780;DHT22;62328;51.19929245;4.42130175;2023-10-08T05:13:41;15.40;99.90
8780;DHT22;62328;51.19929245;4.42130175;2023-10-08T05:16:22;15.50;99.90
8780;DHT22;62328;51.19929245;4.42130175;2023-10-08T05:19:02;15.50;99.90
8780;DHT22;62328;51.19929245;4.42130175;2023-10-08T05:22:02;15.50;99.90
8780;DHT22;62328;51.19929245;4.42130175;2023-10-08T05:24:44;15.50;99.90
8780;DHT22;62328;51.19929245;4.42130175;2023-10-08T05:27:31;15.40;99.90
8780;DHT22;62328;51.19929245;4.42130175;2023-10-08T05:30:04;15.40;99.90
8780;DHT22;62328;51.19929245;4.42130175;2023-10-08T05:32:41;15.40;99.90
8780;DHT22;62328;51.19929245;4.42130175;2023-10-08T05:35:30;15.40;99.90
8780;DHT22;62328;51.19929245;4.42130175;2023-10-08T05:38:16;15.30;99.90
8780;DHT22;62328;51.19929245;4.42130175;2023-10-08T05:40:49;15.30;99.90
8780;DHT22;62328;51.19929245;4.42130175;2023-10-08T05:43:53;15.40;99.90
8780;DHT22;62328;51.19929245;4.42130175;2023-10-08T05:46:37;15.40;99.90
8780;DHT22;62328;51.19929245;4.42130175;2023-10-08T05:49:33;15.30;99.90
8780;DHT22;62328;51.19929245;4.42130175;2023-10-08T05:52:08;15.40;99.90
8780;DHT22;62328;51.19929245;4.42130175;2023-10-08T05:54:52;15.30;99.90
8780;DHT22;62328;51.19929245;4.42130175;2023-10-08T05:57:41;15.30;99.90
8780;DHT22;62328;51.19929245;4.42130175;2023-10-08T06:00:18;15.30;99.90
8780;DHT22;62328;51.19929245;4.42130175;2023-10-08T06:03:01;15.30;99.90
8780;DHT22;62328;51.19929245;4.42130175;2023-10-08T06:06:00;15.30;99.90
8780;DHT22;62328;51.19929245;4.42130175;2023-10-08T06:08:44;15.30;99.90
8780;DHT22;62328;51.19929245;4.42130175;2023-10-08T06:11:33;15.30;99.90
8780;DHT22;62328;51.19929245;4.42130175;2023-10-08T06:14:07;15.40;99.90
8780;DHT22;62328;51.19929245;4.42130175;2023-10-08T06:19:10;15.40;99.90
8780;DHT22;62328;51.19929245;4.42130175;2023-10-08T06:21:37;15.40;99.90
8780;DHT22;62328;51.19929245;4.42130175;2023-10-08T06:24:05;15.50;99.90
8780;DHT22;62328;51.19929245;4.42130175;2023-10-08T06:26:37;15.50;99.90
8780;DHT22;62328;51.19929245;4.42130175;2023-10-08T06:29:09;15.50;99.90
8780;DHT22;62328;51.19929245;4.42130175;2023-10-08T06:31:52;15.60;99.90
8780;DHT22;62328;51.19929245;4.42130175;2023-10-08T06:34:22;15.60;99.90
8780;DHT22;62328;51.19929245;4.42130175;2023-10-08T06:36:55;15.50;99.90
8780;DHT22;62328;51.19929245;4.42130175;2023-10-08T06:39:24;15.60;99.90
8780;DHT22;62328;51.19929245;4.42130175;2023-10-08T06:42:00;15.60;99.90
8780;DHT22;62328;51.19929245;4.42130175;2023-10-08T06:44:28;15.60;99.90
8780;DHT22;62328;51.19929245;4.42130175;2023-10-08T06:46:55;15.60;99.90
8780;DHT22;62328;51.19929245;4.42130175;2023-10-08T06:49:24;15.60;99.90
8780;DHT22;62328;51.19929245;4.42130175;2023-10-08T06:51:51;15.60;99.90
8780;DHT22;62328;51.19929245;4.42130175;2023-10-08T06:54:19;15.60;99.90
8780;DHT22;62328;51.19929245;4.42130175;2023-10-08T06:56:48;15.60;99.90
8780;DHT22;62328;51.19929245;4.42130175;2023-10-08T06:59:20;15.70;99.90
8780;DHT22;62328;51.19929245;4.42130175;2023-10-08T07:01:49;15.60;99.90
8780;DHT22;62328;51.19929245;4.42130175;2023-10-08T07:04:17;15.60;99.90
8780;DHT22;62328;51.19929245;4.42130175;2023-10-08T07:06:46;15.70;99.90
8780;DHT22;62328;51.19929245;4.42130175;2023-10-08T07:09:13;15.70;99.90
8780;DHT22;62328;51.19929245;4.42130175;2023-10-08T07:11:54;15.80;99.90
8780;DHT22;62328;51.19929245;4.42130175;2023-10-08T07:14:24;15.90;99.90
8780;DHT22;62328;51.19929245;4.42130175;2023-10-08T07:16:53;15.90;99.90
8780;DHT22;62328;51.19929245;4.42130175;2023-10-08T07:19:21;15.90;99.90
8780;DHT22;62328;51.19929245;4.42130175;2023-10-08T07:21:59;15.90;99.90
8780;DHT22;62328;51.19929245;4.42130175;2023-10-08T07:24:33;16.00;99.90
8780;DHT22;62328;51.19929245;4.42130175;2023-10-08T07:27:02;16.00;99.90
8780;DHT22;62328;51.19929245;4.42130175;2023-10-08T07:29:36;16.00;99.90
8780;DHT22;62328;51.19929245;4.42130175;2023-10-08T07:32:03;15.90;99.90
8780;DHT22;62328;51.19929245;4.42130175;2023-10-08T07:34:35;15.90;99.90
8780;DHT22;62328;51.19929245;4.42130175;2023-10-08T07:37:03;16.00;99.90
8780;DHT22;62328;51.19929245;4.42130175;2023-10-08T07:39:32;16.10;99.90
8780;DHT22;62328;51.19929245;4.42130175;2023-10-08T07:42:09;16.00;99.90
8780;DHT22;62328;51.19929245;4.42130175;2023-10-08T07:44:39;16.00;99.90
8780;DHT22;62328;51.19929245;4.42130175;2023-10-08T07:47:06;16.00;99.90
8780;DHT22;62328;51.19929245;4.42130175;2023-10-08T07:49:36;16.10;99.90
8780;DHT22;62328;51.19929245;4.42130175;2023-10-08T07:52:03;16.10;99.90
8780;DHT22;62328;51.19929245;4.42130175;2023-10-08T07:54:31;16.10;99.90
8780;DHT22;62328;51.19929245;4.42130175;2023-10-08T07:57:00;16.10;99.90
8780;DHT22;62328;51.19929245;4.42130175;2023-10-08T07:59:35;16.20;99.90
8780;DHT22;62328;51.19929245;4.42130175;2023-10-08T08:02:07;16.30;99.90
8780;DHT22;62328;51.19929245;4.42130175;2023-10-08T08:04:36;16.40;99.90
8780;DHT22;62328;51.19929245;4.42130175;2023-10-08T08:07:05;16.40;99.90
8780;DHT22;62328;51.19929245;4.42130175;2023-10-08T08:09:32;16.50;99.90
8780;DHT22;62328;51.19929245;4.42130175;2023-10-08T08:12:05;16.60;99.90
8780;DHT22;62328;51.19929245;4.42130175;2023-10-08T08:14:34;16.60;99.90
8780;DHT22;62328;51.19929245;4.42130175;2023-10-08T08:17:05;16.70;99.90
8780;DHT22;62328;51.19929245;4.42130175;2023-10-08T08:19:40;16.80;99.90
8780;DHT22;62328;51.19929245;4.42130175;2023-10-08T08:22:06;16.80;99.90
8780;DHT22;62328;51.19929245;4.42130175;2023-10-08T08:24:33;16.80;99.90
8780;DHT22;62328;51.19929245;4.42130175;2023-10-08T08:27:03;16.90;99.90
8780;DHT22;62328;51.19929245;4.42130175;2023-10-08T08:29:36;16.90;99.90
8780;DHT22;62328;51.19929245;4.42130175;2023-10-08T08:32:12;17.00;99.90
8780;DHT22;62328;51.19929245;4.42130175;2023-10-08T08:34:41;17.10;99.90
8780;DHT22;62328;51.19929245;4.42130175;2023-10-08T08:37:09;17.10;99.90
8780;DHT22;62328;51.19929245;4.42130175;2023-10-08T08:39:37;17.20;99.90
8780;DHT22;62328;51.19929245;4.42130175;2023-10-08T08:42:06;17.30;99.90
8780;DHT22;62328;51.19929245;4.42130175;2023-10-08T08:44:36;17.30;99.90
8780;DHT22;62328;51.19929245;4.42130175;2023-10-08T08:47:06;17.50;99.90
8780;DHT22;62328;51.19929245;4.42130175;2023-10-08T08:49:38;17.50;99.90
8780;DHT22;62328;51.19929245;4.42130175;2023-10-08T08:52:05;17.60;99.90
8780;DHT22;62328;51.19929245;4.42130175;2023-10-08T08:54:32;17.60;99.90
8780;DHT22;62328;51.19929245;4.42130175;2023-10-08T08:57:01;17.60;99.90
8780;DHT22;62328;51.19929245;4.42130175;2023-10-08T08:59:30;17.60;99.90
8780;DHT22;62328;51.19929245;4.42130175;2023-10-08T09:01:58;17.60;99.90
8780;DHT22;62328;51.19929245;4.42130175;2023-10-08T09:04:29;17.60;99.90
8780;DHT22;62328;51.19929245;4.42130175;2023-10-08T09:07:00;17.60;99.90
8780;DHT22;62328;51.19929245;4.42130175;2023-10-08T09:09:32;17.70;99.90
8780;DHT22;62328;51.19929245;4.42130175;2023-10-08T09:12:00;17.80;99.90
8780;DHT22;62328;51.19929245;4.42130175;2023-10-08T09:14:30;18.00;99.90
8780;DHT22;62328;51.19929245;4.42130175;2023-10-08T09:16:58;18.00;99.90
8780;DHT22;62328;51.19929245;4.42130175;2023-10-08T09:19:26;18.10;99.90
8780;DHT22;62328;51.19929245;4.42130175;2023-10-08T09:22:02;18.10;99.90
8780;DHT22;62328;51.19929245;4.42130175;2023-10-08T09:24:30;18.20;99.90
8780;DHT22;62328;51.19929245;4.42130175;2023-10-08T09:26:59;18.30;99.90
8780;DHT22;62328;51.19929245;4.42130175;2023-10-08T09:29:28;18.30;99.90
8780;DHT22;62328;51.19929245;4.42130175;2023-10-08T09:31:56;18.30;99.90
8780;DHT22;62328;51.19929245;4.42130175;2023-10-08T09:34:27;18.30;99.90
8780;DHT22;62328;51.19929245;4.42130175;2023-10-08T09:36:56;18.30;99.90
8780;DHT22;62328;51.19929245;4.42130175;2023-10-08T09:39:27;18.30;99.90
8780;DHT22;62328;51.19929245;4.42130175;2023-10-08T09:42:00;18.40;99.90
8780;DHT22;62328;51.19929245;4.42130175;2023-10-08T09:44:29;18.50;99.90
8780;DHT22;62328;51.19929245;4.42130175;2023-10-08T09:47:02;18.50;99.90
8780;DHT22;62328;51.19929245;4.42130175;2023-10-08T09:49:31;18.60;99.90
8780;DHT22;62328;51.19929245;4.42130175;2023-10-08T09:52:03;18.60;99.90
8780;DHT22;62328;51.19929245;4.42130175;2023-10-08T09:54:37;18.70;99.90
8780;DHT22;62328;51.19929245;4.42130175;2023-10-08T09:57:10;18.70;99.90
8780;DHT22;62328;51.19929245;4.42130175;2023-10-08T09:59:37;18.80;99.90
8780;DHT22;62328;51.19929245;4.42130175;2023-10-08T10:02:06;18.90;99.90
8780;DHT22;62328;51.19929245;4.42130175;2023-10-08T10:04:39;18.90;99.90
8780;DHT22;62328;51.19929245;4.42130175;2023-10-08T10:07:10;19.10;99.90
8780;DHT22;62328;51.19929245;4.42130175;2023-10-08T10:09:43;19.20;99.90
8780;DHT22;62328;51.19929245;4.42130175;2023-10-08T10:12:17;19.40;99.90
8780;DHT22;62328;51.19929245;4.42130175;2023-10-08T10:14:46;19.50;99.90
8780;DHT22;62328;51.19929245;4.42130175;2023-10-08T10:17:14;19.80;99.90
8780;DHT22;62328;51.19929245;4.42130175;2023-10-08T10:19:44;20.00;99.90
8780;DHT22;62328;51.19929245;4.42130175;2023-10-08T10:22:14;20.20;99.90
8780;DHT22;62328;51.19929245;4.42130175;2023-10-08T10:24:43;20.20;99.90
8780;DHT22;62328;51.19929245;4.42130175;2023-10-08T10:27:12;20.20;99.90
8780;DHT22;62328;51.19929245;4.42130175;2023-10-08T10:29:41;20.20;99.90
8780;DHT22;62328;51.19929245;4.42130175;2023-10-08T10:32:11;20.10;99.90
8780;DHT22;62328;51.19929245;4.42130175;2023-10-08T10:34:41;20.10;99.90
8780;DHT22;62328;51.19929245;4.42130175;2023-10-08T10:37:09;20.10;99.90
8780;DHT22;62328;51.19929245;4.42130175;2023-10-08T10:39:53;20.10;99.90
8780;DHT22;62328;51.19929245;4.42130175;2023-10-08T10:42:21;20.10;99.90
8780;DHT22;62328;51.19929245;4.42130175;2023-10-08T10:44:49;20.10;99.90
8780;DHT22;62328;51.19929245;4.42130175;2023-10-08T10:47:17;20.10;99.90
8780;DHT22;62328;51.19929245;4.42130175;2023-10-08T10:49:56;20.20;99.90
8780;DHT22;62328;51.19929245;4.42130175;2023-10-08T10:52:42;20.20;99.90
8780;DHT22;62328;51.19929245;4.42130175;2023-10-08T10:55:19;20.30;99.90
8780;DHT22;62328;51.19929245;4.42130175;2023-10-08T10:57:57;20.30;99.90
8780;DHT22;62328;51.19929245;4.42130175;2023-10-08T11:00:31;20.40;99.90
8780;DHT22;62328;51.19929245;4.42130175;2023-10-08T11:03:23;20.50;99.90
8780;DHT22;62328;51.19929245;4.42130175;2023-10-08T11:05:56;20.50;99.90
8780;DHT22;62328;51.19929245;4.42130175;2023-10-08T11:08:26;20.50;99.90
8780;DHT22;62328;51.19929245;4.42130175;2023-10-08T11:11:01;20.40;99.90
8780;DHT22;62328;51.19929245;4.42130175;2023-10-08T11:13:33;20.60;99.90
8780;DHT22;62328;51.19929245;4.42130175;2023-10-08T11:16:05;20.70;99.90
8780;DHT22;62328;51.19929245;4.42130175;2023-10-08T11:18:33;20.80;99.90
8780;DHT22;62328;51.19929245;4.42130175;2023-10-08T11:21:07;20.90;99.90
8780;DHT22;62328;51.19929245;4.42130175;2023-10-08T11:23:45;20.80;99.90
8780;DHT22;62328;51.19929245;4.42130175;2023-10-08T11:26:20;20.90;99.90
8780;DHT22;62328;51.19929245;4.42130175;2023-10-08T11:28:57;21.00;99.90
8780;DHT22;62328;51.19929245;4.42130175;2023-10-08T11:31:27;20.90;99.90
8780;DHT22;62328;51.19929245;4.42130175;2023-10-08T11:33:59;21.00;99.90
8780;DHT22;62328;51.19929245;4.42130175;2023-10-08T11:36:28;21.00;99.90
8780;DHT22;62328;51.19929245;4.42130175;2023-10-08T11:38:57;21.00;99.90
8780;DHT22;62328;51.19929245;4.42130175;2023-10-08T11:41:31;21.00;99.90
8780;DHT22;62328;51.19929245;4.42130175;2023-10-08T11:44:09;21.10;99.90
8780;DHT22;62328;51.19929245;4.42130175;2023-10-08T11:46:39;21.20;99.90
8780;DHT22;62328;51.19929245;4.42130175;2023-10-08T11:49:06;21.30;99.90
8780;DHT22;62328;51.19929245;4.42130175;2023-10-08T11:51:35;21.20;99.90
8780;DHT22;62328;51.19929245;4.42130175;2023-10-08T11:54:02;21.20;99.90
8780;DHT22;62328;51.19929245;4.42130175;2023-10-08T11:56:33;21.10;99.90
8780;DHT22;62328;51.19929245;4.42130175;2023-10-08T11:59:02;21.10;99.90
8780;DHT22;62328;51.19929245;4.42130175;2023-10-08T12:01:34;21.20;99.90
8780;DHT22;62328;51.19929245;4.42130175;2023-10-08T12:04:03;21.20;99.90
8780;DHT22;62328;51.19929245;4.42130175;2023-10-08T12:06:30;21.10;99.90
8780;DHT22;62328;51.19929245;4.42130175;2023-10-08T12:08:58;21.10;99.90
8780;DHT22;62328;51.19929245;4.42130175;2023-10-08T12:11:25;21.10;99.90
8780;DHT22;62328;51.19929245;4.42130175;2023-10-08T12:13:58;21.10;99.90
8780;DHT22;62328;51.19929245;4.42130175;2023-10-08T12:16:26;21.20;99.90
8780;DHT22;62328;51.19929245;4.42130175;2023-10-08T12:18:55;21.20;99.90
8780;DHT22;62328;51.19929245;4.42130175;2023-10-08T12:21:24;21.30;99.90
8780;DHT22;62328;51.19929245;4.42130175;2023-10-08T12:23:53;21.50;99.90
8780;DHT22;62328;51.19929245;4.42130175;2023-10-08T12:26:20;21.50;99.90
8780;DHT22;62328;51.19929245;4.42130175;2023-10-08T12:28:48;21.50;99.90
8780;DHT22;62328;51.19929245;4.42130175;2023-10-08T12:31:17;21.50;99.90
8780;DHT22;62328;51.19929245;4.42130175;2023-10-08T12:33:48;21.40;99.90
8780;DHT22;62328;51.19929245;4.42130175;2023-10-08T12:36:20;21.40;99.90
8780;DHT22;62328;51.19929245;4.42130175;2023-10-08T12:38:50;21.30;99.90
8780;DHT22;62328;51.19929245;4.42130175;2023-10-08T12:41:23;21.40;99.90
8780;DHT22;62328;51.19929245;4.42130175;2023-10-08T12:43:50;21.50;99.90
8780;DHT22;62328;51.19929245;4.42130175;2023-10-08T12:46:21;21.60;99.90
8780;DHT22;62328;51.19929245;4.42130175;2023-10-08T12:48:51;21.60;99.90
8780;DHT22;62328;51.19929245;4.42130175;2023-10-08T12:51:20;21.70;99.90
8780;DHT22;62328;51.19929245;4.42130175;2023-10-08T12:53:50;21.60;99.90
8780;DHT22;62328;51.19929245;4.42130175;2023-10-08T12:56:24;21.60;99.90
8780;DHT22;62328;51.19929245;4.42130175;2023-10-08T12:58:58;21.60;99.90
8780;DHT22;62328;51.19929245;4.42130175;2023-10-08T13:01:26;21.50;99.90
8780;DHT22;62328;51.19929245;4.42130175;2023-10-08T13:03:55;21.50;99.90
8780;DHT22;62328;51.19929245;4.42130175;2023-10-08T13:06:27;21.50;99.90
8780;DHT22;62328;51.19929245;4.42130175;2023-10-08T13:08:55;21.40;99.90
8780;DHT22;62328;51.19929245;4.42130175;2023-10-08T13:11:25;21.50;99.90
8780;DHT22;62328;51.19929245;4.42130175;2023-10-08T13:13:56;21.70;99.90
8780;DHT22;62328;51.19929245;4.42130175;2023-10-08T13:16:26;21.90;99.90
8780;DHT22;62328;51.19929245;4.42130175;2023-10-08T13:18:57;21.90;99.90
8780;DHT22;62328;51.19929245;4.42130175;2023-10-08T13:21:24;21.90;99.90
8780;DHT22;62328;51.19929245;4.42130175;2023-10-08T13:23:51;22.00;99.90
8780;DHT22;62328;51.19929245;4.42130175;2023-10-08T13:26:18;22.00;99.90
8780;DHT22;62328;51.19929245;4.42130175;2023-10-08T13:28:48;22.00;99.90
8780;DHT22;62328;51.19929245;4.42130175;2023-10-08T13:31:15;21.90;99.90
8780;DHT22;62328;51.19929245;4.42130175;2023-10-08T13:33:46;22.10;99.90
8780;DHT22;62328;51.19929245;4.42130175;2023-10-08T13:36:17;22.10;99.90
8780;DHT22;62328;51.19929245;4.42130175;2023-10-08T13:38:45;22.20;99.90
8780;DHT22;62328;51.19929245;4.42130175;2023-10-08T13:41:12;22.30;99.90
8780;DHT22;62328;51.19929245;4.42130175;2023-10-08T13:43:42;22.50;99.90
8780;DHT22;62328;51.19929245;4.42130175;2023-10-08T13:46:13;22.60;99.90
8780;DHT22;62328;51.19929245;4.42130175;2023-10-08T13:48:42;22.50;99.90
8780;DHT22;62328;51.19929245;4.42130175;2023-10-08T13:51:15;22.60;99.90
8780;DHT22;62328;51.19929245;4.42130175;2023-10-08T13:53:48;22.40;99.90
8780;DHT22;62328;51.19929245;4.42130175;2023-10-08T13:56:18;22.30;99.90
8780;DHT22;62328;51.19929245;4.42130175;2023-10-08T13:58:46;22.30;99.90
8780;DHT22;62328;51.19929245;4.42130175;2023-10-08T14:01:15;22.30;99.90
8780;DHT22;62328;51.19929245;4.42130175;2023-10-08T14:03:46;22.40;99.90